createdAt,value
2019-04-03T00:02:08.155Z,11.30
2019-04-03T00:04:36.468Z,12.53
2019-04-03T00:07:05.944Z,14.33
2019-04-03T00:09:35.865Z,13.90
2019-04-03T00:12:04.443Z,13.50
2019-04-03T00:14:33.179Z,13.83
2019-04-03T00:17:01.470Z,13.90
2019-04-03T00:19:29.766Z,13.70
2019-04-03T00:21:58.078Z,14.40
2019-04-03T00:24:26.375Z,12.70
2019-04-03T00:26:54.698Z,11.97
2019-04-03T00:29:23.002Z,12.95
2019-04-03T00:31:52.989Z,13.20
2019-04-03T00:34:22.987Z,13.58
2019-04-03T00:36:52.937Z,14.33
2019-04-03T00:39:23.957Z,13.45
2019-04-03T00:41:52.872Z,12.65
2019-04-03T00:44:23.986Z,13.35
2019-04-03T00:46:51.685Z,13.40
2019-04-03T00:49:19.992Z,13.25
2019-04-03T00:51:48.295Z,14.05
2019-04-03T00:54:16.682Z,14.15
2019-04-03T00:56:45.312Z,14.50
2019-04-03T00:59:13.617Z,15.25
2019-04-03T01:01:42.049Z,15.15
2019-04-03T01:04:10.317Z,16.70
2019-04-03T01:06:38.948Z,15.38
2019-04-03T01:09:08.005Z,16.67
2019-04-03T01:11:36.620Z,16.50
2019-04-03T01:14:05.706Z,15.60
2019-04-03T01:16:34.032Z,16.37
2019-04-03T01:19:05.183Z,16.90
2019-04-03T01:21:32.363Z,16.80
2019-04-03T01:24:00.715Z,16.45
2019-04-03T01:26:29.092Z,15.90
2019-04-03T01:28:57.394Z,17.03
2019-04-03T01:31:25.718Z,16.73
2019-04-03T01:33:54.304Z,16.45
2019-04-03T01:36:22.679Z,16.45
2019-04-03T01:38:51.580Z,16.48
2019-04-03T01:41:21.218Z,17.50
2019-04-03T01:43:50.162Z,16.42
2019-04-03T01:46:18.452Z,16.10
2019-04-03T01:48:46.779Z,16.20
2019-04-03T01:51:15.394Z,15.53
2019-04-03T01:53:43.688Z,15.55
2019-04-03T01:56:11.976Z,15.32
2019-04-03T01:58:40.627Z,15.20
2019-04-03T02:01:08.943Z,15.70
2019-04-03T02:03:37.255Z,14.67
2019-04-03T02:06:05.572Z,14.58
2019-04-03T02:08:33.865Z,15.03
2019-04-03T02:11:02.175Z,14.87
2019-04-03T02:13:30.471Z,14.20
2019-04-03T02:15:58.791Z,14.60
2019-04-03T02:18:27.279Z,14.28
2019-04-03T02:20:57.370Z,14.10
2019-04-03T02:23:26.080Z,13.78
2019-04-03T02:25:54.321Z,14.00
2019-04-03T02:28:22.626Z,13.70
2019-04-03T02:30:51.037Z,13.20
2019-04-03T02:33:19.825Z,14.03
2019-04-03T02:35:48.821Z,13.40
2019-04-03T02:38:17.157Z,12.73
2019-04-03T02:40:45.452Z,12.58
2019-04-03T02:43:15.085Z,11.68
2019-04-03T02:45:44.227Z,12.25
2019-04-03T02:48:12.840Z,11.40
2019-04-03T02:50:41.397Z,11.22
2019-04-03T02:53:10.315Z,11.80
2019-04-03T02:55:40.073Z,11.30
2019-04-03T02:58:08.795Z,13.28
2019-04-03T03:00:37.119Z,14.98
2019-04-03T03:03:05.415Z,14.20
2019-04-03T03:05:34.320Z,15.08
2019-04-03T03:08:02.627Z,16.40
2019-04-03T03:10:31.908Z,17.35
2019-04-03T03:13:02.251Z,16.32
2019-04-03T03:15:30.588Z,16.93
2019-04-03T03:17:59.206Z,16.10
2019-04-03T03:20:29.238Z,17.15
2019-04-03T03:22:57.609Z,15.55
2019-04-03T03:25:26.416Z,15.00
2019-04-03T03:27:55.081Z,14.20
2019-04-03T03:30:42.214Z,13.60
2019-04-03T03:33:19.534Z,12.05
2019-04-03T03:35:30.121Z,11.35
2019-04-03T03:37:54.702Z,10.20
2019-04-03T03:40:23.098Z,9.65
2019-04-03T03:42:51.457Z,7.80
2019-04-03T03:45:21.723Z,7.97
2019-04-03T03:47:50.195Z,7.73
2019-04-03T03:50:23.934Z,7.70
2019-04-03T03:52:52.073Z,7.92
2019-04-03T03:55:22.795Z,7.75
2019-04-03T03:57:51.157Z,8.20
2019-04-03T04:00:22.581Z,8.60
2019-04-03T04:02:49.811Z,7.80
2019-04-03T04:05:21.380Z,7.80
2019-04-03T04:07:48.269Z,7.62
2019-04-03T04:10:16.576Z,7.37
2019-04-03T04:12:45.663Z,7.40
2019-04-03T04:15:14.118Z,8.20
2019-04-03T04:17:42.596Z,7.70
2019-04-03T04:20:12.000Z,8.20
2019-04-03T04:22:40.590Z,7.30
2019-04-03T04:25:08.936Z,8.40
2019-04-03T04:27:39.139Z,8.33
2019-04-03T04:30:08.111Z,8.35
2019-04-03T04:32:36.614Z,8.20
2019-04-03T04:35:06.547Z,8.40
2019-04-03T04:37:34.860Z,7.60
2019-04-03T04:40:03.362Z,8.50
2019-04-03T04:42:34.362Z,8.23
2019-04-03T04:45:02.276Z,8.93
2019-04-03T04:47:30.577Z,21.35
2019-04-03T04:49:58.864Z,23.60
2019-04-03T04:52:27.686Z,8.07
2019-04-03T04:54:56.489Z,7.72
2019-04-03T04:57:25.166Z,8.48
2019-04-03T04:59:53.573Z,7.83
2019-04-03T05:02:22.208Z,8.33
2019-04-03T05:04:50.506Z,7.80
2019-04-03T05:07:19.253Z,8.50
2019-04-03T05:09:47.483Z,8.03
2019-04-03T05:12:16.424Z,8.13
2019-04-03T05:14:44.725Z,8.20
2019-04-03T05:17:13.072Z,8.00
2019-04-03T05:19:41.323Z,8.47
2019-04-03T05:22:09.984Z,8.80
2019-04-03T05:24:38.354Z,8.15
2019-04-03T05:27:08.305Z,8.90
2019-04-03T05:29:36.782Z,8.00
2019-04-03T05:32:05.435Z,8.20
2019-04-03T05:34:33.825Z,7.90
2019-04-03T05:37:02.117Z,8.68
2019-04-03T05:39:30.414Z,9.30
2019-04-03T05:41:59.661Z,8.78
2019-04-03T05:44:28.536Z,8.50
2019-04-03T05:46:59.465Z,9.30
2019-04-03T05:49:26.875Z,9.80
2019-04-03T05:51:55.799Z,9.50
2019-04-03T05:54:24.099Z,9.70
2019-04-03T05:56:52.569Z,10.48
2019-04-03T05:59:21.207Z,10.40
2019-04-03T06:01:49.643Z,11.20
2019-04-03T06:04:18.387Z,12.03
2019-04-03T06:06:47.293Z,11.15
2019-04-03T06:09:15.839Z,11.03
2019-04-03T06:11:44.146Z,11.83
2019-04-03T06:14:12.834Z,12.63
2019-04-03T06:16:41.663Z,12.00
2019-04-03T06:19:09.979Z,11.35
2019-04-03T06:21:38.295Z,12.20
2019-04-03T06:24:06.856Z,11.70
2019-04-03T06:26:37.148Z,11.70
2019-04-03T06:29:07.298Z,10.80
2019-04-03T06:31:35.821Z,12.23
2019-04-03T06:34:07.011Z,10.88
2019-04-03T06:36:34.409Z,11.03
2019-04-03T06:39:03.224Z,10.50
2019-04-03T06:41:31.802Z,11.00
2019-04-03T06:44:00.115Z,11.83
2019-04-03T06:46:29.886Z,11.88
2019-04-03T06:48:58.435Z,10.80
2019-04-03T06:51:26.799Z,11.83
2019-04-03T06:53:55.070Z,12.30
2019-04-03T06:56:23.658Z,12.47
2019-04-03T06:58:52.125Z,12.00
2019-04-03T07:01:20.570Z,12.13
2019-04-03T07:03:49.124Z,11.12
2019-04-03T07:06:18.001Z,11.80
2019-04-03T07:08:46.280Z,12.10
2019-04-03T07:11:23.179Z,12.07
2019-04-03T07:13:44.925Z,11.80
2019-04-03T07:16:13.342Z,12.20
2019-04-03T07:18:41.883Z,12.80
2019-04-03T07:21:10.197Z,13.20
2019-04-03T07:23:39.101Z,13.00
2019-04-03T07:26:07.490Z,12.70
2019-04-03T07:28:35.782Z,12.43
2019-04-03T07:31:04.392Z,13.25
2019-04-03T07:33:32.963Z,13.30
2019-04-03T07:36:01.590Z,13.43
2019-04-03T07:38:30.101Z,14.20
2019-04-03T07:40:58.412Z,14.45
2019-04-03T07:43:27.561Z,13.40
2019-04-03T07:45:56.309Z,13.83
2019-04-03T07:48:24.600Z,12.80
2019-04-03T07:50:53.047Z,12.47
2019-04-03T07:53:21.472Z,11.70
2019-04-03T07:55:50.137Z,12.55
2019-04-03T07:58:18.714Z,11.85
2019-04-03T08:00:47.038Z,12.30
2019-04-03T08:03:15.665Z,12.10
2019-04-03T08:05:44.374Z,10.93
2019-04-03T08:08:13.222Z,12.50
2019-04-03T08:10:42.005Z,12.65
2019-04-03T08:13:10.311Z,12.30
2019-04-03T08:15:38.883Z,12.33
2019-04-03T08:18:07.373Z,13.30
2019-04-03T08:20:35.985Z,12.98
2019-04-03T08:23:05.630Z,12.37
2019-04-03T08:25:35.097Z,13.03
2019-04-03T08:28:03.484Z,12.83
2019-04-03T08:30:31.774Z,12.58
2019-04-03T08:33:00.262Z,12.30
2019-04-03T08:35:28.698Z,10.65
2019-04-03T08:37:57.273Z,11.40
2019-04-03T08:40:25.862Z,11.55
2019-04-03T08:42:54.422Z,11.00
2019-04-03T08:45:23.339Z,11.67
2019-04-03T08:47:51.708Z,11.50
2019-04-03T08:50:20.047Z,11.80
2019-04-03T08:52:48.912Z,13.07
2019-04-03T08:55:17.461Z,12.45
2019-04-03T08:57:46.862Z,11.45
2019-04-03T09:00:17.344Z,12.28
2019-04-03T09:02:45.742Z,11.38
2019-04-03T09:05:15.137Z,12.35
2019-04-03T09:07:43.652Z,12.40
2019-04-03T09:10:13.485Z,12.40
2019-04-03T09:12:42.074Z,13.88
2019-04-03T09:15:11.316Z,13.70
2019-04-03T09:17:39.937Z,17.60
2019-04-03T09:20:08.406Z,16.37
2019-04-03T09:22:36.738Z,14.20
2019-04-03T09:25:06.870Z,14.70
2019-04-03T09:27:35.174Z,16.03
2019-04-03T09:30:11.817Z,19.90
2019-04-03T09:32:40.113Z,19.15
2019-04-03T09:35:08.755Z,16.37
2019-04-03T09:37:38.100Z,15.27
2019-04-03T09:40:07.440Z,15.83
2019-04-03T09:42:35.855Z,16.23
2019-04-03T09:45:07.504Z,21.05
2019-04-03T09:47:35.824Z,20.12
2019-04-03T09:50:06.918Z,18.90
2019-04-03T09:52:42.070Z,17.40
2019-04-03T09:55:06.269Z,17.80
2019-04-03T09:57:34.601Z,17.20
2019-04-03T10:00:04.099Z,17.60
2019-04-03T10:02:32.420Z,16.65
2019-04-03T10:05:01.041Z,17.55
2019-04-03T10:07:31.453Z,18.10
2019-04-03T10:09:59.377Z,18.45
2019-04-03T10:12:27.666Z,18.65
2019-04-03T10:14:57.042Z,18.73
2019-04-03T10:17:26.032Z,17.98
2019-04-03T10:19:54.583Z,18.57
2019-04-03T10:22:24.173Z,19.77
2019-04-03T10:24:53.045Z,18.93
2019-04-03T10:27:21.662Z,20.05
2019-04-03T10:29:50.841Z,19.73
2019-04-03T10:32:19.423Z,19.37
2019-04-03T10:34:48.029Z,18.63
2019-04-03T10:37:16.321Z,18.35
2019-04-03T10:39:44.973Z,19.40
2019-04-03T10:42:13.486Z,18.63
2019-04-03T10:44:42.276Z,18.48
2019-04-03T10:47:10.576Z,17.85
2019-04-03T10:49:39.134Z,15.72
2019-04-03T10:52:07.450Z,15.70
2019-04-03T10:54:38.055Z,14.85
2019-04-03T10:57:06.434Z,14.80
2019-04-03T10:59:34.786Z,14.47
2019-04-03T11:02:03.121Z,14.50
2019-04-03T11:04:31.417Z,14.65
2019-04-03T11:07:00.099Z,14.40
2019-04-03T11:09:28.436Z,18.37
2019-04-03T11:11:58.273Z,15.37
2019-04-03T11:14:27.173Z,14.73
2019-04-03T11:16:55.818Z,13.62
2019-04-03T11:19:24.302Z,13.85
2019-04-03T11:21:55.746Z,14.17
2019-04-03T11:24:23.423Z,13.40
2019-04-03T11:26:52.510Z,12.70
2019-04-03T11:29:21.426Z,11.57
2019-04-03T11:31:50.370Z,11.00
2019-04-03T11:34:19.192Z,10.30
2019-04-03T11:36:47.649Z,11.38
2019-04-03T11:39:16.791Z,10.78
2019-04-03T11:41:45.161Z,9.90
2019-04-03T11:44:13.902Z,9.53
2019-04-03T11:46:42.372Z,9.80
2019-04-03T11:49:11.014Z,9.28
2019-04-03T11:51:39.567Z,8.63
2019-04-03T11:54:08.584Z,9.20
2019-04-03T11:56:37.463Z,8.88
2019-04-03T11:59:05.768Z,8.20
2019-04-03T12:01:34.154Z,7.10
2019-04-03T12:04:02.756Z,6.40
2019-04-03T12:06:31.134Z,4.50
2019-04-03T12:09:01.029Z,4.28
2019-04-03T12:11:29.512Z,4.00
2019-04-03T12:13:57.812Z,4.33
2019-04-03T12:16:26.621Z,4.60
2019-04-03T12:18:55.019Z,3.70
2019-04-03T12:21:23.322Z,4.15
2019-04-03T12:23:51.741Z,3.90
2019-04-03T12:26:21.282Z,3.67
2019-04-03T12:28:50.210Z,3.25
2019-04-03T12:31:19.293Z,6.20
2019-04-03T12:33:56.835Z,3.77
2019-04-03T12:36:18.091Z,4.05
2019-04-03T12:38:46.653Z,4.00
2019-04-03T12:41:15.580Z,3.00
2019-04-03T12:43:43.860Z,3.80
2019-04-03T12:46:12.488Z,5.40
2019-04-03T12:48:41.104Z,5.15
2019-04-03T12:51:09.382Z,3.87
2019-04-03T12:53:37.925Z,3.53
2019-04-03T12:56:06.587Z,5.62
2019-04-03T12:58:36.299Z,7.58
2019-04-03T13:01:05.150Z,3.50
2019-04-03T13:03:36.389Z,3.62
2019-04-03T13:06:03.869Z,3.30
2019-04-03T13:08:32.188Z,3.20
2019-04-03T13:11:00.763Z,3.80
2019-04-03T13:13:29.170Z,3.80
2019-04-03T13:15:57.473Z,3.20
2019-04-03T13:18:25.765Z,2.92
2019-04-03T13:20:54.391Z,2.60
2019-04-03T13:23:22.686Z,3.08
2019-04-03T13:25:53.100Z,2.37
2019-04-03T13:28:21.627Z,1.90
2019-04-03T13:30:50.269Z,1.73
2019-04-03T13:33:18.620Z,1.70
2019-04-03T13:35:48.359Z,1.60
2019-04-03T13:38:17.547Z,1.75
2019-04-03T13:40:46.095Z,1.70
2019-04-03T13:43:15.025Z,2.30
2019-04-03T13:45:43.809Z,2.22
2019-04-03T13:48:13.404Z,2.00
2019-04-03T13:50:45.045Z,1.90
2019-04-03T13:53:12.736Z,2.30
2019-04-03T13:55:41.203Z,2.20
2019-04-03T13:58:09.516Z,2.08
2019-04-03T14:00:37.866Z,2.00
2019-04-03T14:03:06.177Z,2.55
2019-04-03T14:05:34.892Z,2.55
2019-04-03T14:08:06.037Z,2.70
2019-04-03T14:10:34.013Z,2.90
2019-04-03T14:13:02.344Z,2.60
2019-04-03T14:15:31.134Z,2.20
2019-04-03T14:17:59.524Z,2.40
2019-04-03T14:20:28.709Z,2.50
2019-04-03T14:22:56.978Z,2.22
2019-04-03T14:25:28.107Z,2.20
2019-04-03T14:27:55.980Z,2.20
2019-04-03T14:30:24.623Z,2.30
2019-04-03T14:32:54.668Z,2.30
2019-04-03T14:35:45.194Z,1.98
2019-04-03T14:37:53.414Z,1.95
2019-04-03T14:40:22.067Z,3.35
2019-04-03T14:42:50.841Z,2.70
2019-04-03T14:45:19.853Z,2.33
2019-04-03T14:47:48.568Z,2.20
2019-04-03T14:50:17.085Z,2.10
2019-04-03T14:52:47.653Z,2.30
2019-04-03T14:55:19.802Z,2.08
2019-04-03T14:57:45.628Z,2.20
2019-04-03T15:00:25.651Z,1.80
2019-04-03T15:02:44.432Z,2.10
2019-04-03T15:05:12.991Z,2.02
2019-04-03T15:07:41.347Z,2.02
2019-04-03T15:10:10.080Z,1.70
2019-04-03T15:12:39.871Z,1.77
2019-04-03T15:15:09.703Z,1.75
2019-04-03T15:17:38.739Z,2.10
2019-04-03T15:20:08.545Z,1.72
2019-04-03T15:22:37.144Z,1.90
2019-04-03T15:25:06.482Z,1.98
2019-04-03T15:27:34.739Z,1.70
2019-04-03T15:30:03.034Z,2.10
2019-04-03T15:32:32.049Z,1.85
2019-04-03T15:35:01.217Z,2.20
2019-04-03T15:37:29.997Z,1.90
2019-04-03T15:39:59.129Z,2.00
2019-04-03T15:42:27.988Z,1.98
2019-04-03T15:44:57.727Z,1.90
2019-04-03T15:47:35.180Z,1.80
2019-04-03T15:49:58.746Z,1.85
2019-04-03T15:52:26.445Z,1.98
2019-04-03T15:54:54.776Z,2.10
2019-04-03T15:57:23.258Z,2.10
2019-04-03T15:59:52.761Z,2.00
2019-04-03T16:02:21.514Z,2.17
2019-04-03T16:04:50.370Z,1.80
2019-04-03T16:07:18.933Z,2.25
2019-04-03T16:09:49.633Z,2.13
2019-04-03T16:12:17.831Z,1.82
2019-04-03T16:14:46.848Z,1.85
2019-04-03T16:17:15.561Z,1.60
2019-04-03T16:19:44.769Z,1.75
2019-04-03T16:22:13.684Z,2.00
2019-04-03T16:24:44.279Z,1.70
2019-04-03T16:27:12.006Z,1.73
2019-04-03T16:29:41.324Z,1.87
2019-04-03T16:32:10.294Z,2.25
2019-04-03T16:34:40.817Z,2.10
2019-04-03T16:37:08.673Z,2.00
2019-04-03T16:39:36.975Z,1.60
2019-04-03T16:42:05.438Z,2.00
2019-04-03T16:44:34.003Z,2.00
2019-04-03T16:47:02.893Z,2.00
2019-04-03T16:49:31.595Z,2.10
2019-04-03T16:51:59.865Z,2.20
2019-04-03T16:54:29.601Z,2.20
2019-04-03T16:56:58.280Z,2.12
2019-04-03T16:59:26.696Z,2.62
2019-04-03T17:01:54.945Z,2.22
2019-04-03T17:04:27.202Z,2.40
2019-04-03T17:06:53.791Z,2.50
2019-04-03T17:09:22.090Z,2.42
2019-04-03T17:11:51.195Z,2.50
2019-04-03T17:14:23.671Z,2.60
2019-04-03T17:16:50.480Z,2.70
2019-04-03T17:19:18.948Z,2.60
2019-04-03T17:21:47.244Z,2.50
2019-04-03T17:24:17.826Z,2.60
2019-04-03T17:26:50.895Z,2.77
2019-04-03T17:29:17.022Z,2.70
2019-04-03T17:31:45.532Z,2.75
2019-04-03T17:34:13.824Z,2.90
2019-04-03T17:36:42.360Z,2.70
2019-04-03T17:39:11.174Z,2.95
2019-04-03T17:41:39.512Z,3.70
2019-04-03T17:44:07.837Z,3.90
2019-04-03T17:46:36.138Z,4.50
2019-04-03T17:49:04.987Z,4.55
2019-04-03T17:51:34.197Z,4.40
2019-04-03T17:54:02.477Z,4.57
2019-04-03T17:56:30.844Z,4.30
2019-04-03T17:58:59.191Z,3.30
2019-04-03T18:01:27.501Z,3.35
2019-04-03T18:03:55.819Z,3.20
2019-04-03T18:06:27.170Z,3.08
2019-04-03T18:08:54.190Z,3.55
2019-04-03T18:11:22.471Z,3.50
2019-04-03T18:13:50.754Z,3.50
2019-04-03T18:16:19.068Z,2.55
2019-04-03T18:18:49.883Z,1.92
2019-04-03T18:21:18.380Z,1.80
2019-04-03T18:23:46.698Z,1.60
2019-04-03T18:26:15.005Z,3.10
2019-04-03T18:28:43.318Z,3.50
2019-04-03T18:31:11.779Z,3.77
2019-04-03T18:33:41.860Z,4.00
2019-04-03T18:36:10.184Z,3.87
2019-04-03T18:38:39.104Z,3.20
2019-04-03T18:41:07.448Z,5.83
2019-04-03T18:43:35.747Z,3.70
2019-04-03T18:46:04.118Z,3.80
2019-04-03T18:48:32.413Z,4.50
2019-04-03T18:51:00.720Z,3.17
2019-04-03T18:53:29.057Z,3.40
2019-04-03T18:55:57.386Z,4.00
2019-04-03T18:58:25.686Z,3.85
2019-04-03T19:00:53.981Z,3.77
2019-04-03T19:03:22.279Z,3.50
2019-04-03T19:05:50.604Z,3.60
2019-04-03T19:08:18.886Z,3.20
2019-04-03T19:10:47.199Z,3.50
2019-04-03T19:13:15.564Z,3.55
2019-04-03T19:15:43.939Z,3.10
2019-04-03T19:18:19.380Z,3.20
2019-04-03T19:20:43.408Z,4.05
2019-04-03T19:23:12.652Z,3.60
2019-04-03T19:25:41.046Z,3.90
2019-04-03T19:28:09.365Z,3.30
2019-04-03T19:30:38.032Z,3.52
2019-04-03T19:33:06.757Z,3.58
2019-04-03T19:35:35.062Z,3.90
2019-04-03T19:38:04.991Z,3.70
2019-04-03T19:40:33.477Z,3.90
2019-04-03T19:43:01.778Z,4.22
2019-04-03T19:45:30.110Z,4.00
2019-04-03T19:47:58.675Z,3.90
2019-04-03T19:50:26.978Z,4.60
2019-04-03T19:52:55.260Z,5.22
2019-04-03T19:55:24.188Z,5.20
2019-04-03T19:57:52.817Z,4.95
2019-04-03T20:00:21.202Z,4.70
2019-04-03T20:02:49.598Z,5.72
2019-04-03T20:05:19.040Z,4.30
2019-04-03T20:07:47.836Z,95.55
2019-04-03T20:10:16.229Z,45.63
2019-04-03T20:12:44.519Z,26.87
2019-04-03T20:15:12.942Z,3.60
2019-04-03T20:17:41.252Z,3.30
2019-04-03T20:20:10.874Z,3.22
2019-04-03T20:22:42.313Z,3.30
2019-04-03T20:25:09.370Z,2.90
2019-04-03T20:27:37.767Z,3.10
2019-04-03T20:30:07.728Z,3.72
2019-04-03T20:32:36.105Z,3.20
2019-04-03T20:35:06.229Z,3.67
2019-04-03T20:37:34.536Z,3.62
2019-04-03T20:40:03.172Z,3.77
2019-04-03T20:42:31.510Z,3.27
2019-04-03T20:44:59.798Z,3.65
2019-04-03T20:47:28.214Z,4.17
2019-04-03T20:49:56.504Z,3.85
2019-04-03T20:52:24.799Z,3.30
2019-04-03T20:54:53.829Z,4.40
2019-04-03T20:57:22.284Z,4.40
2019-04-03T20:59:58.477Z,4.80
2019-04-03T21:02:20.675Z,4.10
2019-04-03T21:04:49.099Z,4.72
2019-04-03T21:07:17.371Z,4.50
2019-04-03T21:09:45.666Z,4.00
2019-04-03T21:12:14.035Z,3.90
2019-04-03T21:14:42.334Z,3.90
2019-04-03T21:17:10.625Z,4.30
2019-04-03T21:19:38.919Z,4.20
2019-04-03T21:22:07.474Z,4.00
2019-04-03T21:24:36.088Z,4.15
2019-04-03T21:27:04.379Z,4.27
2019-04-03T21:29:32.947Z,4.20
2019-04-03T21:32:01.234Z,4.28
2019-04-03T21:34:33.203Z,4.00
2019-04-03T21:37:01.786Z,4.10
2019-04-03T21:39:30.180Z,4.30
2019-04-03T21:41:58.635Z,4.00
2019-04-03T21:44:27.223Z,4.22
2019-04-03T21:46:55.799Z,4.42
2019-04-03T21:49:24.097Z,4.22
2019-04-03T21:51:52.462Z,4.60
2019-04-03T21:54:20.764Z,4.80
2019-04-03T21:56:49.079Z,4.90
2019-04-03T21:59:17.358Z,4.90
2019-04-03T22:05:14.121Z,4.50
2019-04-03T22:07:42.394Z,4.85
2019-04-03T22:10:11.111Z,4.70
2019-04-03T22:12:39.398Z,5.45
2019-04-03T22:15:08.172Z,5.60
2019-04-03T22:17:36.749Z,5.50
2019-04-03T22:20:06.223Z,5.40
2019-04-03T22:22:34.517Z,5.20
2019-04-03T22:25:02.803Z,5.90
2019-04-03T22:27:31.126Z,5.92
2019-04-03T22:29:59.419Z,5.65
2019-04-03T22:32:27.710Z,5.87
2019-04-03T22:34:55.989Z,5.70
2019-04-03T22:37:24.609Z,9.00
2019-04-03T22:39:52.891Z,8.00
2019-04-03T22:42:23.199Z,11.05
2019-04-03T22:44:51.216Z,10.00
2019-04-03T22:47:19.795Z,8.30
2019-04-03T22:49:48.110Z,7.00
2019-04-03T22:52:16.391Z,5.60
2019-04-03T22:54:45.014Z,5.87
2019-04-03T22:57:13.310Z,6.20
2019-04-03T22:59:41.617Z,5.60
2019-04-03T23:02:10.334Z,5.92
2019-04-03T23:04:41.822Z,5.55
2019-04-03T23:07:08.631Z,6.00
2019-04-03T23:09:37.220Z,5.60
2019-04-03T23:12:05.525Z,5.75
2019-04-03T23:14:33.926Z,5.70
2019-04-03T23:17:02.545Z,6.00
2019-04-03T23:19:32.482Z,5.70
2019-04-03T23:22:00.914Z,5.40
2019-04-03T23:24:29.574Z,6.10
2019-04-03T23:26:58.215Z,6.30
2019-04-03T23:29:26.530Z,6.20
2019-04-03T23:31:54.818Z,5.83
2019-04-03T23:34:23.125Z,5.80
2019-04-03T23:36:52.429Z,6.27
2019-04-03T23:39:21.731Z,6.50
2019-04-03T23:41:50.023Z,5.80
2019-04-03T23:44:18.619Z,6.33
2019-04-03T23:46:47.218Z,6.53
2019-04-03T23:49:15.890Z,6.85
2019-04-03T23:51:44.178Z,6.50
2019-04-03T23:54:12.485Z,6.70
2019-04-03T23:56:40.789Z,6.20
2019-04-03T23:59:09.091Z,6.50
